sensor_id;sensor_type;location;lat;lon;timestamp;P1;durP1;ratioP1;P2;durP2;ratioP2
13331;SDS011;6735;51.456;12.626;2022-08-06T00:00:52;3.53;;;2.60;;
13331;SDS011;6735;51.456;12.626;2022-08-06T00:03:18;3.23;;;2.60;;
13331;SDS011;6735;51.456;12.626;2022-08-06T00:05:43;2.80;;;2.27;;
13331;SDS011;6735;51.456;12.626;2022-08-06T00:08:09;3.10;;;2.30;;
13331;SDS011;6735;51.456;12.626;2022-08-06T00:10:35;3.97;;;2.10;;
13331;SDS011;6735;51.456;12.626;2022-08-06T00:13:00;2.20;;;1.90;;
13331;SDS011;6735;51.456;12.626;2022-08-06T00:15:26;3.13;;;2.37;;
13331;SDS011;6735;51.456;12.626;2022-08-06T00:17:52;2.40;;;2.20;;
13331;SDS011;6735;51.456;12.626;2022-08-06T00:20:18;1.80;;;1.70;;
13331;SDS011;6735;51.456;12.626;2022-08-06T00:22:44;2.63;;;2.13;;
13331;SDS011;6735;51.456;12.626;2022-08-06T00:25:09;2.27;;;1.90;;
13331;SDS011;6735;51.456;12.626;2022-08-06T00:27:35;2.30;;;1.80;;
13331;SDS011;6735;51.456;12.626;2022-08-06T00:30:02;2.23;;;1.83;;
13331;SDS011;6735;51.456;12.626;2022-08-06T00:32:29;2.03;;;1.80;;
13331;SDS011;6735;51.456;12.626;2022-08-06T00:34:55;1.93;;;1.50;;
13331;SDS011;6735;51.456;12.626;2022-08-06T00:37:20;1.73;;;1.63;;
13331;SDS011;6735;51.456;12.626;2022-08-06T00:39:46;2.10;;;1.80;;
13331;SDS011;6735;51.456;12.626;2022-08-06T00:42:11;2.43;;;1.97;;
13331;SDS011;6735;51.456;12.626;2022-08-06T00:44:37;1.70;;;1.60;;
13331;SDS011;6735;51.456;12.626;2022-08-06T00:47:02;1.70;;;1.60;;
13331;SDS011;6735;51.456;12.626;2022-08-06T00:49:28;3.60;;;1.50;;
13331;SDS011;6735;51.456;12.626;2022-08-06T00:51:54;1.60;;;1.50;;
13331;SDS011;6735;51.456;12.626;2022-08-06T00:54:19;2.30;;;1.60;;
13331;SDS011;6735;51.456;12.626;2022-08-06T00:56:45;1.53;;;1.40;;
13331;SDS011;6735;51.456;12.626;2022-08-06T00:59:10;2.20;;;1.67;;
13331;SDS011;6735;51.456;12.626;2022-08-06T01:01:36;2.17;;;1.57;;
13331;SDS011;6735;51.456;12.626;2022-08-06T01:04:02;1.50;;;1.40;;
13331;SDS011;6735;51.456;12.626;2022-08-06T01:06:27;3.47;;;1.47;;
13331;SDS011;6735;51.456;12.626;2022-08-06T01:08:53;1.70;;;1.40;;
13331;SDS011;6735;51.456;12.626;2022-08-06T01:11:18;2.30;;;1.40;;
13331;SDS011;6735;51.456;12.626;2022-08-06T01:13:44;3.03;;;1.53;;
13331;SDS011;6735;51.456;12.626;2022-08-06T01:21:59;1.30;;;1.30;;
13331;SDS011;6735;51.456;12.626;2022-08-06T01:27:55;2.03;;;1.70;;
13331;SDS011;6735;51.456;12.626;2022-08-06T01:30:27;2.63;;;1.50;;
13331;SDS011;6735;51.456;12.626;2022-08-06T01:32:57;2.00;;;1.70;;
13331;SDS011;6735;51.456;12.626;2022-08-06T01:35:30;1.93;;;1.57;;
13331;SDS011;6735;51.456;12.626;2022-08-06T01:38:03;2.17;;;1.77;;
13331;SDS011;6735;51.456;12.626;2022-08-06T01:40:33;1.60;;;1.50;;
13331;SDS011;6735;51.456;12.626;2022-08-06T01:43:02;2.27;;;1.80;;
13331;SDS011;6735;51.456;12.626;2022-08-06T01:45:31;2.13;;;1.57;;
13331;SDS011;6735;51.456;12.626;2022-08-06T01:48:01;3.90;;;1.70;;
13331;SDS011;6735;51.456;12.626;2022-08-06T01:50:30;1.73;;;1.57;;
13331;SDS011;6735;51.456;12.626;2022-08-06T01:53:00;2.43;;;1.60;;
13331;SDS011;6735;51.456;12.626;2022-08-06T01:55:30;1.70;;;1.33;;
13331;SDS011;6735;51.456;12.626;2022-08-06T01:58:00;2.47;;;1.50;;
13331;SDS011;6735;51.456;12.626;2022-08-06T02:00:29;1.40;;;1.27;;
13331;SDS011;6735;51.456;12.626;2022-08-06T02:02:57;2.80;;;1.70;;
13331;SDS011;6735;51.456;12.626;2022-08-06T02:05:24;1.60;;;1.50;;
13331;SDS011;6735;51.456;12.626;2022-08-06T02:07:51;1.53;;;1.43;;
13331;SDS011;6735;51.456;12.626;2022-08-06T02:10:19;1.67;;;1.33;;
13331;SDS011;6735;51.456;12.626;2022-08-06T02:12:47;1.93;;;1.80;;
13331;SDS011;6735;51.456;12.626;2022-08-06T02:15:14;1.90;;;1.33;;
13331;SDS011;6735;51.456;12.626;2022-08-06T02:17:46;5.03;;;1.50;;
13331;SDS011;6735;51.456;12.626;2022-08-06T02:20:14;1.80;;;1.50;;
13331;SDS011;6735;51.456;12.626;2022-08-06T02:22:42;2.87;;;1.30;;
13331;SDS011;6735;51.456;12.626;2022-08-06T02:25:12;2.83;;;1.60;;
13331;SDS011;6735;51.456;12.626;2022-08-06T02:27:40;1.80;;;1.70;;
13331;SDS011;6735;51.456;12.626;2022-08-06T02:30:09;1.70;;;1.60;;
13331;SDS011;6735;51.456;12.626;2022-08-06T02:32:36;1.60;;;1.50;;
13331;SDS011;6735;51.456;12.626;2022-08-06T02:35:02;2.70;;;1.67;;
13331;SDS011;6735;51.456;12.626;2022-08-06T02:37:35;1.53;;;1.43;;
13331;SDS011;6735;51.456;12.626;2022-08-06T02:40:07;2.70;;;1.60;;
13331;SDS011;6735;51.456;12.626;2022-08-06T02:42:37;2.17;;;1.40;;
13331;SDS011;6735;51.456;12.626;2022-08-06T02:45:15;2.50;;;1.70;;
13331;SDS011;6735;51.456;12.626;2022-08-06T02:47:50;2.33;;;1.40;;
13331;SDS011;6735;51.456;12.626;2022-08-06T02:50:20;1.90;;;1.47;;
13331;SDS011;6735;51.456;12.626;2022-08-06T02:52:56;3.27;;;1.53;;
13331;SDS011;6735;51.456;12.626;2022-08-06T02:55:26;1.43;;;1.30;;
13331;SDS011;6735;51.456;12.626;2022-08-06T02:57:57;1.63;;;1.10;;
13331;SDS011;6735;51.456;12.626;2022-08-06T03:00:36;2.03;;;1.50;;
13331;SDS011;6735;51.456;12.626;2022-08-06T03:03:05;1.67;;;1.53;;
13331;SDS011;6735;51.456;12.626;2022-08-06T03:05:32;2.17;;;1.47;;
13331;SDS011;6735;51.456;12.626;2022-08-06T03:07:58;1.47;;;1.20;;
13331;SDS011;6735;51.456;12.626;2022-08-06T03:10:25;1.53;;;1.40;;
13331;SDS011;6735;51.456;12.626;2022-08-06T03:12:53;3.67;;;1.70;;
13331;SDS011;6735;51.456;12.626;2022-08-06T03:15:19;2.13;;;1.50;;
13331;SDS011;6735;51.456;12.626;2022-08-06T03:17:47;1.80;;;1.37;;
13331;SDS011;6735;51.456;12.626;2022-08-06T03:20:16;1.70;;;1.60;;
13331;SDS011;6735;51.456;12.626;2022-08-06T03:22:46;4.50;;;1.63;;
13331;SDS011;6735;51.456;12.626;2022-08-06T03:25:13;1.97;;;1.50;;
13331;SDS011;6735;51.456;12.626;2022-08-06T03:27:41;1.63;;;1.30;;
13331;SDS011;6735;51.456;12.626;2022-08-06T03:30:09;2.60;;;1.40;;
13331;SDS011;6735;51.456;12.626;2022-08-06T03:32:39;2.63;;;1.60;;
13331;SDS011;6735;51.456;12.626;2022-08-06T03:35:05;1.97;;;1.40;;
13331;SDS011;6735;51.456;12.626;2022-08-06T03:37:31;1.60;;;1.27;;
13331;SDS011;6735;51.456;12.626;2022-08-06T03:39:59;2.67;;;1.47;;
13331;SDS011;6735;51.456;12.626;2022-08-06T03:42:25;2.00;;;1.40;;
13331;SDS011;6735;51.456;12.626;2022-08-06T03:44:51;6.13;;;1.40;;
13331;SDS011;6735;51.456;12.626;2022-08-06T03:47:19;2.33;;;1.30;;
13331;SDS011;6735;51.456;12.626;2022-08-06T03:49:59;2.33;;;1.57;;
13331;SDS011;6735;51.456;12.626;2022-08-06T03:52:30;2.70;;;1.27;;
13331;SDS011;6735;51.456;12.626;2022-08-06T03:55:04;1.43;;;1.30;;
13331;SDS011;6735;51.456;12.626;2022-08-06T03:57:34;2.60;;;1.53;;
13331;SDS011;6735;51.456;12.626;2022-08-06T04:00:05;2.17;;;1.30;;
13331;SDS011;6735;51.456;12.626;2022-08-06T04:02:35;2.53;;;1.23;;
13331;SDS011;6735;51.456;12.626;2022-08-06T04:05:05;2.50;;;1.40;;
13331;SDS011;6735;51.456;12.626;2022-08-06T04:07:32;1.23;;;1.13;;
13331;SDS011;6735;51.456;12.626;2022-08-06T04:09:59;2.20;;;1.43;;
13331;SDS011;6735;51.456;12.626;2022-08-06T04:12:26;1.60;;;1.50;;
13331;SDS011;6735;51.456;12.626;2022-08-06T04:14:53;4.00;;;1.60;;
13331;SDS011;6735;51.456;12.626;2022-08-06T04:17:19;3.77;;;1.60;;
13331;SDS011;6735;51.456;12.626;2022-08-06T04:19:46;2.30;;;1.67;;
13331;SDS011;6735;51.456;12.626;2022-08-06T04:22:13;2.87;;;1.40;;
13331;SDS011;6735;51.456;12.626;2022-08-06T04:24:39;1.20;;;1.20;;
13331;SDS011;6735;51.456;12.626;2022-08-06T04:27:05;1.83;;;1.40;;
13331;SDS011;6735;51.456;12.626;2022-08-06T04:29:33;2.03;;;1.30;;
13331;SDS011;6735;51.456;12.626;2022-08-06T04:32:01;1.93;;;1.20;;
13331;SDS011;6735;51.456;12.626;2022-08-06T04:34:28;1.43;;;1.33;;
13331;SDS011;6735;51.456;12.626;2022-08-06T04:36:55;1.53;;;1.43;;
13331;SDS011;6735;51.456;12.626;2022-08-06T04:39:24;3.13;;;1.67;;
13331;SDS011;6735;51.456;12.626;2022-08-06T04:41:50;2.83;;;1.33;;
13331;SDS011;6735;51.456;12.626;2022-08-06T04:44:16;2.80;;;1.40;;
13331;SDS011;6735;51.456;12.626;2022-08-06T04:46:42;2.47;;;1.40;;
13331;SDS011;6735;51.456;12.626;2022-08-06T04:49:13;3.37;;;1.70;;
13331;SDS011;6735;51.456;12.626;2022-08-06T04:51:45;1.83;;;1.53;;
13331;SDS011;6735;51.456;12.626;2022-08-06T04:54:11;2.80;;;1.50;;
13331;SDS011;6735;51.456;12.626;2022-08-06T04:56:38;2.90;;;1.60;;
13331;SDS011;6735;51.456;12.626;2022-08-06T04:59:04;2.40;;;1.60;;
13331;SDS011;6735;51.456;12.626;2022-08-06T05:01:30;2.43;;;1.50;;
13331;SDS011;6735;51.456;12.626;2022-08-06T05:03:55;3.20;;;1.80;;
13331;SDS011;6735;51.456;12.626;2022-08-06T05:06:22;3.40;;;1.53;;
13331;SDS011;6735;51.456;12.626;2022-08-06T05:09:09;4.33;;;1.83;;
13331;SDS011;6735;51.456;12.626;2022-08-06T05:11:40;2.10;;;1.80;;
13331;SDS011;6735;51.456;12.626;2022-08-06T05:14:09;5.77;;;1.90;;
13331;SDS011;6735;51.456;12.626;2022-08-06T05:16:41;4.17;;;1.80;;
13331;SDS011;6735;51.456;12.626;2022-08-06T05:19:11;3.53;;;1.80;;
13331;SDS011;6735;51.456;12.626;2022-08-06T05:21:41;3.83;;;2.23;;
13331;SDS011;6735;51.456;12.626;2022-08-06T05:24:09;4.30;;;1.90;;
13331;SDS011;6735;51.456;12.626;2022-08-06T05:26:34;2.33;;;1.67;;
13331;SDS011;6735;51.456;12.626;2022-08-06T05:29:00;3.57;;;1.87;;
13331;SDS011;6735;51.456;12.626;2022-08-06T05:31:30;3.07;;;1.90;;
13331;SDS011;6735;51.456;12.626;2022-08-06T05:34:01;1.93;;;1.80;;
13331;SDS011;6735;51.456;12.626;2022-08-06T05:36:27;3.13;;;1.60;;
13331;SDS011;6735;51.456;12.626;2022-08-06T05:38:53;2.07;;;1.70;;
13331;SDS011;6735;51.456;12.626;2022-08-06T05:41:18;4.00;;;1.80;;
13331;SDS011;6735;51.456;12.626;2022-08-06T05:43:44;2.37;;;1.47;;
13331;SDS011;6735;51.456;12.626;2022-08-06T05:46:11;3.40;;;2.03;;
13331;SDS011;6735;51.456;12.626;2022-08-06T05:48:40;2.40;;;1.67;;
13331;SDS011;6735;51.456;12.626;2022-08-06T05:51:15;3.13;;;1.60;;
13331;SDS011;6735;51.456;12.626;2022-08-06T05:53:53;1.63;;;1.43;;
13331;SDS011;6735;51.456;12.626;2022-08-06T05:56:40;2.80;;;1.60;;
13331;SDS011;6735;51.456;12.626;2022-08-06T05:59:09;2.63;;;1.60;;
13331;SDS011;6735;51.456;12.626;2022-08-06T06:01:44;2.30;;;1.60;;
13331;SDS011;6735;51.456;12.626;2022-08-06T06:04:11;5.10;;;1.70;;
13331;SDS011;6735;51.456;12.626;2022-08-06T06:06:37;5.37;;;1.57;;
13331;SDS011;6735;51.456;12.626;2022-08-06T06:09:03;3.07;;;1.60;;
13331;SDS011;6735;51.456;12.626;2022-08-06T06:11:30;4.87;;;1.50;;
13331;SDS011;6735;51.456;12.626;2022-08-06T06:13:56;2.63;;;1.30;;
13331;SDS011;6735;51.456;12.626;2022-08-06T06:16:33;3.07;;;1.40;;
13331;SDS011;6735;51.456;12.626;2022-08-06T06:19:14;2.87;;;1.30;;
13331;SDS011;6735;51.456;12.626;2022-08-06T06:24:34;3.27;;;1.43;;
13331;SDS011;6735;51.456;12.626;2022-08-06T06:33:15;2.97;;;1.10;;
13331;SDS011;6735;51.456;12.626;2022-08-06T06:35:42;3.50;;;1.53;;
13331;SDS011;6735;51.456;12.626;2022-08-06T06:41:16;2.37;;;1.20;;
13331;SDS011;6735;51.456;12.626;2022-08-06T06:43:50;2.77;;;1.47;;
13331;SDS011;6735;51.456;12.626;2022-08-06T06:51:53;2.40;;;1.20;;
13331;SDS011;6735;51.456;12.626;2022-08-06T06:54:31;1.50;;;1.00;;
13331;SDS011;6735;51.456;12.626;2022-08-06T06:57:00;2.23;;;0.80;;
13331;SDS011;6735;51.456;12.626;2022-08-06T06:59:32;1.37;;;0.70;;
13331;SDS011;6735;51.456;12.626;2022-08-06T07:01:59;2.53;;;0.90;;
13331;SDS011;6735;51.456;12.626;2022-08-06T07:04:27;4.57;;;1.00;;
13331;SDS011;6735;51.456;12.626;2022-08-06T07:06:54;3.57;;;1.17;;
13331;SDS011;6735;51.456;12.626;2022-08-06T07:09:24;2.40;;;0.90;;
13331;SDS011;6735;51.456;12.626;2022-08-06T07:11:52;2.23;;;0.80;;
13331;SDS011;6735;51.456;12.626;2022-08-06T07:14:20;3.67;;;1.03;;
13331;SDS011;6735;51.456;12.626;2022-08-06T07:16:48;3.00;;;1.20;;
13331;SDS011;6735;51.456;12.626;2022-08-06T07:19:18;2.10;;;0.80;;
13331;SDS011;6735;51.456;12.626;2022-08-06T07:21:44;2.30;;;0.90;;
13331;SDS011;6735;51.456;12.626;2022-08-06T07:24:11;4.23;;;1.10;;
13331;SDS011;6735;51.456;12.626;2022-08-06T07:26:41;3.60;;;1.10;;
13331;SDS011;6735;51.456;12.626;2022-08-06T07:29:08;3.83;;;1.10;;
13331;SDS011;6735;51.456;12.626;2022-08-06T07:31:35;1.53;;;0.93;;
13331;SDS011;6735;51.456;12.626;2022-08-06T07:34:03;1.73;;;0.80;;
13331;SDS011;6735;51.456;12.626;2022-08-06T07:36:31;1.33;;;0.90;;
13331;SDS011;6735;51.456;12.626;2022-08-06T07:38:58;1.37;;;0.80;;
13331;SDS011;6735;51.456;12.626;2022-08-06T07:41:27;2.57;;;1.03;;
13331;SDS011;6735;51.456;12.626;2022-08-06T07:43:57;3.07;;;0.90;;
13331;SDS011;6735;51.456;12.626;2022-08-06T07:46:25;3.10;;;0.87;;
13331;SDS011;6735;51.456;12.626;2022-08-06T07:48:57;2.70;;;0.80;;
13331;SDS011;6735;51.456;12.626;2022-08-06T07:51:28;2.50;;;0.80;;
13331;SDS011;6735;51.456;12.626;2022-08-06T07:53:57;1.00;;;0.83;;
13331;SDS011;6735;51.456;12.626;2022-08-06T07:56:23;2.10;;;0.83;;
13331;SDS011;6735;51.456;12.626;2022-08-06T07:58:50;1.37;;;0.70;;
13331;SDS011;6735;51.456;12.626;2022-08-06T08:01:17;1.63;;;0.80;;
13331;SDS011;6735;51.456;12.626;2022-08-06T08:03:43;1.13;;;0.70;;
13331;SDS011;6735;51.456;12.626;2022-08-06T08:06:29;3.00;;;1.00;;
13331;SDS011;6735;51.456;12.626;2022-08-06T08:09:05;2.90;;;1.00;;
13331;SDS011;6735;51.456;12.626;2022-08-06T08:11:37;1.57;;;0.70;;
13331;SDS011;6735;51.456;12.626;2022-08-06T08:14:08;1.57;;;0.73;;
13331;SDS011;6735;51.456;12.626;2022-08-06T08:16:35;2.73;;;1.00;;
13331;SDS011;6735;51.456;12.626;2022-08-06T08:19:02;2.47;;;0.70;;
13331;SDS011;6735;51.456;12.626;2022-08-06T08:21:28;2.30;;;0.73;;
13331;SDS011;6735;51.456;12.626;2022-08-06T08:23:55;2.37;;;0.87;;
13331;SDS011;6735;51.456;12.626;2022-08-06T08:26:21;1.87;;;0.90;;
13331;SDS011;6735;51.456;12.626;2022-08-06T08:28:47;2.07;;;0.70;;
13331;SDS011;6735;51.456;12.626;2022-08-06T08:31:12;2.37;;;1.00;;
13331;SDS011;6735;51.456;12.626;2022-08-06T08:33:38;3.70;;;3.37;;
13331;SDS011;6735;51.456;12.626;2022-08-06T08:36:05;1.13;;;0.70;;
13331;SDS011;6735;51.456;12.626;2022-08-06T08:38:32;1.67;;;0.93;;
13331;SDS011;6735;51.456;12.626;2022-08-06T08:41:08;1.90;;;0.83;;
13331;SDS011;6735;51.456;12.626;2022-08-06T08:43:42;2.07;;;0.80;;
13331;SDS011;6735;51.456;12.626;2022-08-06T08:46:10;2.70;;;1.13;;
13331;SDS011;6735;51.456;12.626;2022-08-06T08:48:36;1.67;;;0.70;;
13331;SDS011;6735;51.456;12.626;2022-08-06T08:51:02;3.73;;;1.13;;
13331;SDS011;6735;51.456;12.626;2022-08-06T08:53:32;1.67;;;0.90;;
13331;SDS011;6735;51.456;12.626;2022-08-06T08:56:02;1.03;;;0.73;;
13331;SDS011;6735;51.456;12.626;2022-08-06T08:58:28;1.63;;;0.80;;
13331;SDS011;6735;51.456;12.626;2022-08-06T09:00:56;1.73;;;0.70;;
13331;SDS011;6735;51.456;12.626;2022-08-06T09:03:22;1.47;;;0.80;;
13331;SDS011;6735;51.456;12.626;2022-08-06T09:05:48;1.53;;;1.03;;
13331;SDS011;6735;51.456;12.626;2022-08-06T09:08:14;3.60;;;0.97;;
13331;SDS011;6735;51.456;12.626;2022-08-06T09:10:41;1.50;;;0.70;;
13331;SDS011;6735;51.456;12.626;2022-08-06T09:13:06;1.03;;;0.80;;
13331;SDS011;6735;51.456;12.626;2022-08-06T09:15:31;2.00;;;0.90;;
13331;SDS011;6735;51.456;12.626;2022-08-06T09:17:57;1.03;;;0.87;;
13331;SDS011;6735;51.456;12.626;2022-08-06T09:20:22;4.27;;;0.93;;
13331;SDS011;6735;51.456;12.626;2022-08-06T09:22:48;1.90;;;0.80;;
13331;SDS011;6735;51.456;12.626;2022-08-06T09:28:50;1.97;;;0.90;;
13331;SDS011;6735;51.456;12.626;2022-08-06T09:31:10;2.30;;;1.00;;
13331;SDS011;6735;51.456;12.626;2022-08-06T09:33:38;1.60;;;0.80;;
13331;SDS011;6735;51.456;12.626;2022-08-06T09:36:06;2.37;;;1.10;;
13331;SDS011;6735;51.456;12.626;2022-08-06T09:41:13;1.07;;;0.90;;
13331;SDS011;6735;51.456;12.626;2022-08-06T09:43:39;3.73;;;1.07;;
13331;SDS011;6735;51.456;12.626;2022-08-06T09:46:06;1.30;;;0.60;;
13331;SDS011;6735;51.456;12.626;2022-08-06T09:48:33;2.07;;;1.40;;
13331;SDS011;6735;51.456;12.626;2022-08-06T09:50:59;1.60;;;0.93;;
13331;SDS011;6735;51.456;12.626;2022-08-06T09:53:25;1.87;;;0.90;;
13331;SDS011;6735;51.456;12.626;2022-08-06T09:55:51;2.17;;;1.00;;
13331;SDS011;6735;51.456;12.626;2022-08-06T09:58:31;2.77;;;0.90;;
13331;SDS011;6735;51.456;12.626;2022-08-06T10:03:46;1.97;;;0.73;;
13331;SDS011;6735;51.456;12.626;2022-08-06T10:06:13;1.37;;;0.80;;
13331;SDS011;6735;51.456;12.626;2022-08-06T10:08:39;0.97;;;0.90;;
13331;SDS011;6735;51.456;12.626;2022-08-06T10:11:06;1.63;;;0.70;;
13331;SDS011;6735;51.456;12.626;2022-08-06T10:13:32;1.43;;;0.87;;
13331;SDS011;6735;51.456;12.626;2022-08-06T10:15:59;1.53;;;0.80;;
13331;SDS011;6735;51.456;12.626;2022-08-06T10:18:41;1.00;;;0.70;;
13331;SDS011;6735;51.456;12.626;2022-08-06T10:21:09;2.53;;;0.50;;
13331;SDS011;6735;51.456;12.626;2022-08-06T10:23:40;2.67;;;0.80;;
13331;SDS011;6735;51.456;12.626;2022-08-06T10:26:07;1.10;;;0.73;;
13331;SDS011;6735;51.456;12.626;2022-08-06T10:28:36;1.67;;;0.70;;
13331;SDS011;6735;51.456;12.626;2022-08-06T10:31:03;1.60;;;0.80;;
13331;SDS011;6735;51.456;12.626;2022-08-06T10:33:31;1.30;;;0.67;;
13331;SDS011;6735;51.456;12.626;2022-08-06T10:36:08;0.90;;;0.60;;
13331;SDS011;6735;51.456;12.626;2022-08-06T10:38:35;2.77;;;0.80;;
13331;SDS011;6735;51.456;12.626;2022-08-06T10:41:04;3.23;;;0.80;;
13331;SDS011;6735;51.456;12.626;2022-08-06T10:43:34;1.87;;;0.80;;
13331;SDS011;6735;51.456;12.626;2022-08-06T10:46:11;2.67;;;0.80;;
13331;SDS011;6735;51.456;12.626;2022-08-06T10:48:39;1.03;;;0.70;;
13331;SDS011;6735;51.456;12.626;2022-08-06T10:51:07;1.33;;;0.60;;
13331;SDS011;6735;51.456;12.626;2022-08-06T10:53:34;1.63;;;0.67;;
13331;SDS011;6735;51.456;12.626;2022-08-06T10:56:01;3.00;;;2.33;;
13331;SDS011;6735;51.456;12.626;2022-08-06T10:58:29;1.80;;;0.60;;
13331;SDS011;6735;51.456;12.626;2022-08-06T11:00:56;1.97;;;0.80;;
13331;SDS011;6735;51.456;12.626;2022-08-06T11:03:30;0.67;;;0.60;;
13331;SDS011;6735;51.456;12.626;2022-08-06T11:11:35;1.93;;;1.00;;
13331;SDS011;6735;51.456;12.626;2022-08-06T11:14:11;1.43;;;0.80;;
13331;SDS011;6735;51.456;12.626;2022-08-06T11:16:38;1.30;;;0.60;;
13331;SDS011;6735;51.456;12.626;2022-08-06T11:19:11;1.73;;;0.77;;
13331;SDS011;6735;51.456;12.626;2022-08-06T11:21:44;0.93;;;0.67;;
13331;SDS011;6735;51.456;12.626;2022-08-06T11:24:11;0.93;;;0.60;;
13331;SDS011;6735;51.456;12.626;2022-08-06T11:26:39;1.13;;;0.80;;
13331;SDS011;6735;51.456;12.626;2022-08-06T11:29:07;2.77;;;0.70;;
13331;SDS011;6735;51.456;12.626;2022-08-06T11:31:34;2.33;;;0.70;;
13331;SDS011;6735;51.456;12.626;2022-08-06T11:34:06;1.50;;;0.80;;
13331;SDS011;6735;51.456;12.626;2022-08-06T11:39:17;1.73;;;0.80;;
13331;SDS011;6735;51.456;12.626;2022-08-06T11:41:47;1.87;;;0.60;;
13331;SDS011;6735;51.456;12.626;2022-08-06T11:44:18;0.83;;;0.60;;
13331;SDS011;6735;51.456;12.626;2022-08-06T11:46:45;0.90;;;0.60;;
13331;SDS011;6735;51.456;12.626;2022-08-06T11:51:57;0.73;;;0.60;;
13331;SDS011;6735;51.456;12.626;2022-08-06T11:54:27;1.17;;;0.60;;
13331;SDS011;6735;51.456;12.626;2022-08-06T12:02:09;1.27;;;0.60;;
13331;SDS011;6735;51.456;12.626;2022-08-06T12:15:32;1.83;;;0.63;;
13331;SDS011;6735;51.456;12.626;2022-08-06T12:23:21;1.13;;;0.60;;
13331;SDS011;6735;51.456;12.626;2022-08-06T12:25:53;0.43;;;0.43;;
13331;SDS011;6735;51.456;12.626;2022-08-06T12:28:19;0.80;;;0.50;;
13331;SDS011;6735;51.456;12.626;2022-08-06T12:30:49;1.00;;;0.70;;
13331;SDS011;6735;51.456;12.626;2022-08-06T12:33:16;2.37;;;0.50;;
13331;SDS011;6735;51.456;12.626;2022-08-06T12:35:53;1.70;;;0.63;;
13331;SDS011;6735;51.456;12.626;2022-08-06T12:38:21;1.13;;;0.50;;
13331;SDS011;6735;51.456;12.626;2022-08-06T12:40:53;1.23;;;0.60;;
13331;SDS011;6735;51.456;12.626;2022-08-06T12:43:30;1.63;;;0.60;;
13331;SDS011;6735;51.456;12.626;2022-08-06T12:45:58;1.47;;;0.60;;
13331;SDS011;6735;51.456;12.626;2022-08-06T12:48:25;0.97;;;0.50;;
13331;SDS011;6735;51.456;12.626;2022-08-06T12:51:02;2.10;;;0.80;;
13331;SDS011;6735;51.456;12.626;2022-08-06T12:56:35;1.20;;;0.40;;
13331;SDS011;6735;51.456;12.626;2022-08-06T12:59:02;1.20;;;0.50;;
13331;SDS011;6735;51.456;12.626;2022-08-06T13:01:30;1.03;;;0.57;;
13331;SDS011;6735;51.456;12.626;2022-08-06T13:03:59;0.40;;;0.30;;
13331;SDS011;6735;51.456;12.626;2022-08-06T13:06:27;0.70;;;0.57;;
13331;SDS011;6735;51.456;12.626;2022-08-06T13:08:54;0.60;;;0.40;;
13331;SDS011;6735;51.456;12.626;2022-08-06T13:11:27;1.07;;;0.50;;
13331;SDS011;6735;51.456;12.626;2022-08-06T13:13:53;1.63;;;0.80;;
13331;SDS011;6735;51.456;12.626;2022-08-06T13:16:19;1.10;;;0.50;;
13331;SDS011;6735;51.456;12.626;2022-08-06T13:19:04;0.57;;;0.53;;
13331;SDS011;6735;51.456;12.626;2022-08-06T13:21:31;0.77;;;0.70;;
13331;SDS011;6735;51.456;12.626;2022-08-06T13:23:57;1.80;;;0.50;;
13331;SDS011;6735;51.456;12.626;2022-08-06T13:26:24;1.80;;;0.50;;
13331;SDS011;6735;51.456;12.626;2022-08-06T13:29:03;1.33;;;0.60;;
13331;SDS011;6735;51.456;12.626;2022-08-06T13:31:34;2.33;;;0.77;;
13331;SDS011;6735;51.456;12.626;2022-08-06T13:34:04;0.83;;;0.50;;
13331;SDS011;6735;51.456;12.626;2022-08-06T13:36:32;1.03;;;0.60;;
13331;SDS011;6735;51.456;12.626;2022-08-06T13:39:01;0.97;;;0.60;;
13331;SDS011;6735;51.456;12.626;2022-08-06T13:41:42;1.50;;;0.77;;
13331;SDS011;6735;51.456;12.626;2022-08-06T13:44:08;1.00;;;0.90;;
13331;SDS011;6735;51.456;12.626;2022-08-06T13:46:54;1.60;;;0.47;;
13331;SDS011;6735;51.456;12.626;2022-08-06T13:49:19;0.97;;;0.60;;
13331;SDS011;6735;51.456;12.626;2022-08-06T13:51:45;2.30;;;1.30;;
13331;SDS011;6735;51.456;12.626;2022-08-06T13:54:10;1.13;;;0.60;;
13331;SDS011;6735;51.456;12.626;2022-08-06T13:56:36;0.90;;;0.50;;
13331;SDS011;6735;51.456;12.626;2022-08-06T13:59:01;1.07;;;0.60;;
13331;SDS011;6735;51.456;12.626;2022-08-06T14:01:27;0.73;;;0.70;;
13331;SDS011;6735;51.456;12.626;2022-08-06T14:03:52;1.03;;;0.60;;
13331;SDS011;6735;51.456;12.626;2022-08-06T14:06:18;0.90;;;0.70;;
13331;SDS011;6735;51.456;12.626;2022-08-06T14:08:43;1.20;;;0.50;;
13331;SDS011;6735;51.456;12.626;2022-08-06T14:11:09;0.60;;;0.40;;
13331;SDS011;6735;51.456;12.626;2022-08-06T14:13:34;0.70;;;0.30;;
13331;SDS011;6735;51.456;12.626;2022-08-06T14:15:59;0.40;;;0.40;;
13331;SDS011;6735;51.456;12.626;2022-08-06T14:18:25;0.47;;;0.40;;
13331;SDS011;6735;51.456;12.626;2022-08-06T14:20:52;1.27;;;0.70;;
13331;SDS011;6735;51.456;12.626;2022-08-06T14:23:17;1.40;;;0.40;;
13331;SDS011;6735;51.456;12.626;2022-08-06T14:25:43;0.60;;;0.40;;
13331;SDS011;6735;51.456;12.626;2022-08-06T14:28:09;1.73;;;0.40;;
13331;SDS011;6735;51.456;12.626;2022-08-06T14:30:34;1.10;;;0.40;;
13331;SDS011;6735;51.456;12.626;2022-08-06T14:33:01;0.73;;;0.43;;
13331;SDS011;6735;51.456;12.626;2022-08-06T14:35:27;1.30;;;0.50;;
13331;SDS011;6735;51.456;12.626;2022-08-06T14:37:53;1.43;;;0.50;;
13331;SDS011;6735;51.456;12.626;2022-08-06T14:40:19;0.80;;;0.37;;
13331;SDS011;6735;51.456;12.626;2022-08-06T14:43:04;0.67;;;0.43;;
13331;SDS011;6735;51.456;12.626;2022-08-06T14:45:48;0.90;;;0.60;;
13331;SDS011;6735;51.456;12.626;2022-08-06T14:48:13;1.73;;;0.47;;
13331;SDS011;6735;51.456;12.626;2022-08-06T14:50:39;0.40;;;0.30;;
13331;SDS011;6735;51.456;12.626;2022-08-06T14:53:05;0.33;;;0.30;;
13331;SDS011;6735;51.456;12.626;2022-08-06T14:55:30;1.10;;;0.50;;
13331;SDS011;6735;51.456;12.626;2022-08-06T14:57:56;0.40;;;0.40;;
13331;SDS011;6735;51.456;12.626;2022-08-06T15:00:21;1.27;;;0.40;;
13331;SDS011;6735;51.456;12.626;2022-08-06T15:02:47;0.60;;;0.50;;
13331;SDS011;6735;51.456;12.626;2022-08-06T15:05:12;0.57;;;0.57;;
13331;SDS011;6735;51.456;12.626;2022-08-06T15:07:38;1.33;;;0.60;;
13331;SDS011;6735;51.456;12.626;2022-08-06T15:10:03;0.73;;;0.50;;
13331;SDS011;6735;51.456;12.626;2022-08-06T15:12:29;1.57;;;0.80;;
13331;SDS011;6735;51.456;12.626;2022-08-06T15:14:54;1.50;;;0.50;;
13331;SDS011;6735;51.456;12.626;2022-08-06T15:17:20;1.37;;;0.80;;
13331;SDS011;6735;51.456;12.626;2022-08-06T15:19:45;0.30;;;0.30;;
13331;SDS011;6735;51.456;12.626;2022-08-06T15:22:11;1.30;;;0.50;;
13331;SDS011;6735;51.456;12.626;2022-08-06T15:24:37;1.80;;;0.73;;
13331;SDS011;6735;51.456;12.626;2022-08-06T15:27:03;0.53;;;0.40;;
13331;SDS011;6735;51.456;12.626;2022-08-06T15:29:29;1.20;;;0.50;;
13331;SDS011;6735;51.456;12.626;2022-08-06T15:31:55;1.20;;;0.60;;
13331;SDS011;6735;51.456;12.626;2022-08-06T15:34:21;2.47;;;0.70;;
13331;SDS011;6735;51.456;12.626;2022-08-06T15:36:46;0.83;;;0.70;;
13331;SDS011;6735;51.456;12.626;2022-08-06T15:39:12;0.60;;;0.60;;
13331;SDS011;6735;51.456;12.626;2022-08-06T15:41:37;1.20;;;0.50;;
13331;SDS011;6735;51.456;12.626;2022-08-06T15:44:03;0.70;;;0.70;;
13331;SDS011;6735;51.456;12.626;2022-08-06T15:46:28;0.63;;;0.57;;
13331;SDS011;6735;51.456;12.626;2022-08-06T15:48:54;0.90;;;0.53;;
13331;SDS011;6735;51.456;12.626;2022-08-06T15:51:23;2.87;;;2.67;;
13331;SDS011;6735;51.456;12.626;2022-08-06T15:53:50;1.27;;;0.77;;
13331;SDS011;6735;51.456;12.626;2022-08-06T15:56:17;0.63;;;0.50;;
13331;SDS011;6735;51.456;12.626;2022-08-06T15:58:42;0.40;;;0.40;;
13331;SDS011;6735;51.456;12.626;2022-08-06T16:01:08;0.47;;;0.47;;
13331;SDS011;6735;51.456;12.626;2022-08-06T16:03:34;1.87;;;0.40;;
13331;SDS011;6735;51.456;12.626;2022-08-06T16:06:00;0.93;;;0.57;;